Time;durP1;ratioP1;P1;durP2;ratioP2;P2;SDS_P1;SDS_P2;PMS_P1;PMS_P2;Temp;Humidity;BMP_temperature;BMP_pressure;BME280_temperature;BME280_humidity;BME280_pressure;Samples;Min_cycle;Max_cycle;Signal;HPM_P1;HPM_P2
2022/06/22 00:01:35;;;;;;;14.23;11.63;;;;;;;24.49;57.46;98777.59;4954317;29;20027;-80
2022/06/22 00:04:02;;;;;;;27.45;16.60;;;;;;;24.73;56.50;98776.63;4954202;28;20405;-79
2022/06/22 00:06:58;;;;;;;13.07;10.73;;;;;;;24.99;55.40;98785.34;4937052;29;20027;-79
2022/06/22 00:09:33;;;;;;;16.73;10.60;;;;;;;25.01;55.36;98786.50;4933797;28;20094;-79
2022/06/22 00:12:00;;;;;;;12.32;10.00;;;;;;;24.44;56.57;98797.38;4956017;28;20093;-79
2022/06/22 00:14:32;;;;;;;15.18;9.98;;;;;;;24.83;55.77;98781.28;4956106;28;20031;-79
2022/06/22 00:16:57;;;;;;;12.98;9.82;;;;;;;24.97;55.42;98785.78;4952598;29;20027;-79
2022/06/22 00:19:31;;;;;;;15.02;10.40;;;;;;;24.98;55.51;98793.13;4953836;28;20355;-79
2022/06/22 00:21:57;;;;;;;14.25;9.82;;;;;;;25.03;55.45;98798.28;4936991;29;20090;-79
2022/06/22 00:24:22;;;;;;;19.88;11.32;;;;;;;24.83;55.50;98789.03;4937065;29;20438;-79
2022/06/22 00:26:54;;;;;;;10.95;9.63;;;;;;;24.83;55.74;98789.84;4953877;29;20498;-79
2022/06/22 00:29:35;;;;;;;17.83;11.27;;;;;;;24.92;55.81;98787.16;4936488;28;20031;-79
2022/06/22 00:32:12;;;;;;;17.50;10.93;;;;;;;24.97;55.23;98791.50;4953351;28;20035;-79
2022/06/22 00:34:37;;;;;;;14.02;10.55;;;;;;;24.98;55.25;98781.69;4953979;29;20387;-79
2022/06/22 00:37:18;;;;;;;13.30;9.93;;;;;;;24.98;55.02;98786.59;4953872;29;20046;-79
2022/06/22 00:39:48;;;;;;;14.70;10.70;;;;;;;25.00;55.60;98786.94;4952597;28;20030;-79
2022/06/22 00:42:18;;;;;;;14.70;9.63;;;;;;;25.08;54.83;98786.28;4955021;28;20478;-79
2022/06/22 00:44:46;;;;;;;14.88;11.07;;;;;;;25.14;55.03;98789.41;4956248;28;20085;-79
2022/06/22 00:47:30;;;;;;;18.90;11.05;;;;;;;24.97;55.28;98777.19;4936537;29;20039;-79
2022/06/22 00:50:00;;;;;;;14.50;11.20;;;;;;;24.93;55.77;98776.50;4936186;29;20035;-79
2022/06/22 00:52:35;;;;;;;19.27;11.65;;;;;;;24.94;55.60;98780.97;4936144;29;20059;-79
2022/06/22 00:55:03;;;;;;;12.73;10.32;;;;;;;24.93;55.93;98785.09;4936206;29;20503;-79
2022/06/22 00:57:36;;;;;;;13.02;10.65;;;;;;;24.89;56.15;98782.31;4953893;28;20542;-79
2022/06/22 01:00:05;;;;;;;14.32;10.30;;;;;;;24.66;56.58;98792.69;4958981;28;20026;-79
2022/06/22 01:02:45;;;;;;;13.07;10.55;;;;;;;24.56;56.92;98799.53;4936272;28;20456;-78
2022/06/22 01:05:31;;;;;;;13.75;10.85;;;;;;;24.65;56.65;98804.59;4973091;28;20105;-79
2022/06/22 01:08:20;;;;;;;13.82;10.70;;;;;;;24.58;56.38;98799.88;4954035;28;20031;-79
2022/06/22 01:14:12;;;;;;;14.48;10.63;;;;;;;24.23;57.43;98803.16;4953639;28;20042;-79
2022/06/22 01:16:43;;;;;;;17.67;10.82;;;;;;;24.25;56.83;98814.16;4938865;29;20375;-79
2022/06/22 01:19:30;;;;;;;15.88;10.57;;;;;;;24.02;57.08;98815.88;4936391;29;20034;-80
2022/06/22 01:22:16;;;;;;;14.38;10.25;;;;;;;24.00;56.68;98806.94;4936217;29;20118;-79
2022/06/22 01:25:08;;;;;;;14.82;9.93;;;;;;;24.03;56.97;98810.97;4952852;28;20469;-80
2022/06/22 01:27:36;;;;;;;16.42;10.55;;;;;;;24.15;56.33;98812.34;4953442;29;20030;-79
2022/06/22 01:30:31;;;;;;;17.67;9.88;;;;;;;24.31;56.22;98814.41;4952902;28;20027;-79
2022/06/22 01:32:57;;;;;;;13.25;10.00;;;;;;;24.30;55.86;98810.75;4929039;29;20042;-79
2022/06/22 01:35:30;;;;;;;16.50;10.75;;;;;;;24.32;55.35;98813.97;4953451;29;20031;-80
2022/06/22 01:37:56;;;;;;;15.73;10.68;;;;;;;24.41;55.10;98821.94;4968136;28;20039;-80
2022/06/22 01:40:25;;;;;;;12.68;9.00;;;;;;;24.28;55.11;98823.88;4968062;28;20023;-79
2022/06/22 01:42:57;;;;;;;13.73;10.20;;;;;;;23.98;55.89;98813.09;4966701;28;20023;-79
2022/06/22 01:45:38;;;;;;;14.82;10.05;;;;;;;23.85;56.13;98820.75;4944053;29;20035;-80
2022/06/22 01:48:19;;;;;;;10.77;9.45;;;;;;;24.08;55.48;98836.16;4957054;29;20023;-79
2022/06/22 01:50:55;;;;;;;14.52;9.90;;;;;;;24.09;55.54;98820.63;4955659;29;20031;-80
2022/06/22 01:53:31;;;;;;;19.48;9.77;;;;;;;24.15;55.29;98830.31;4949172;29;20074;-80
2022/06/22 01:56:08;;;;;;;14.18;10.05;;;;;;;24.12;55.53;98834.03;4939336;29;20079;-79
2022/06/22 01:59:17;;;;;;;11.90;9.38;;;;;;;24.19;55.65;98831.00;4939368;29;20086;-79
2022/06/22 02:02:02;;;;;;;15.43;10.23;;;;;;;23.90;56.32;98828.81;4956755;29;20023;-79
2022/06/22 02:05:03;;;;;;;15.20;9.50;;;;;;;23.71;57.04;98821.84;4974665;28;20027;-79
2022/06/22 02:07:56;;;;;;;25.30;11.65;;;;;;;23.82;57.06;98824.47;4975336;28;20043;-79
2022/06/22 02:10:40;;;;;;;11.60;9.00;;;;;;;23.90;56.72;98816.56;4948780;28;20039;-80
2022/06/22 02:13:14;;;;;;;14.55;9.45;;;;;;;23.92;56.23;98829.16;4951557;28;20094;-78
2022/06/22 02:15:40;;;;;;;13.80;10.13;;;;;;;24.01;55.70;98822.84;4955488;28;20027;-79
2022/06/22 02:18:11;;;;;;;12.50;9.82;;;;;;;23.91;56.04;98816.13;4965477;28;20496;-80
2022/06/22 02:20:39;;;;;;;14.63;9.85;;;;;;;23.74;56.19;98811.59;4975628;28;20102;-79
2022/06/22 02:23:33;;;;;;;20.75;10.27;;;;;;;23.69;56.13;98821.50;4958478;28;20389;-79
2022/06/22 02:26:18;;;;;;;21.42;11.20;;;;;;;23.40;57.82;98828.59;4958080;28;20457;-79
2022/06/22 02:28:45;;;;;;;23.10;11.68;;;;;;;23.40;57.57;98822.91;4954478;28;20035;-78
2022/06/22 02:31:11;;;;;;;38.50;12.00;;;;;;;23.44;57.03;98827.75;4956381;28;20094;-79
2022/06/22 02:33:41;;;;;;;14.77;9.73;;;;;;;23.57;56.92;98831.53;4970985;28;20505;-79
2022/06/22 02:36:07;;;;;;;11.15;9.00;;;;;;;23.61;56.21;98820.84;4970723;28;20027;-79
2022/06/22 02:38:33;;;;;;;18.50;9.55;;;;;;;23.33;56.18;98788.00;4940116;29;20174;-79
2022/06/22 02:46:37;;;;;;;14.88;9.40;;;;;;;23.38;55.04;98819.69;4956526;28;20046;-79
2022/06/22 02:49:11;;;;;;;12.60;8.63;;;;;;;23.07;55.63;98808.47;4974872;28;20054;-78
2022/06/22 02:51:47;;;;;;;12.70;10.07;;;;;;;23.14;55.73;98818.91;4957483;28;20029;-79
2022/06/22 02:54:27;;;;;;;15.00;9.98;;;;;;;22.99;55.98;98799.25;4961216;28;20054;-79
2022/06/22 02:57:19;;;;;;;14.38;9.93;;;;;;;23.23;55.42;98815.47;4937487;29;20067;-79
2022/06/22 02:59:46;;;;;;;12.50;9.10;;;;;;;23.04;56.27;98808.53;4925765;29;20495;-79
2022/06/22 03:02:12;;;;;;;16.80;9.18;;;;;;;22.91;55.72;98785.53;4966523;28;20022;-79
2022/06/22 03:04:41;;;;;;;13.07;10.13;;;;;;;22.96;55.90;98805.00;4938239;29;20478;-79
2022/06/22 03:07:07;;;;;;;20.13;9.57;;;;;;;23.17;55.60;98820.06;4938179;29;20019;-79
2022/06/22 03:09:33;;;;;;;12.35;9.15;;;;;;;23.26;55.84;98811.75;4955277;28;20106;-84
2022/06/22 03:12:01;;;;;;;11.45;9.60;;;;;;;23.25;55.59;98808.09;4938388;29;20037;-84
2022/06/22 03:14:30;;;;;;;15.85;8.48;;;;;;;23.25;55.39;98813.00;4955405;28;20031;-82
2022/06/22 03:17:04;;;;;;;15.43;9.43;;;;;;;23.28;55.59;98807.25;4962435;28;20030;-83
2022/06/22 03:19:41;;;;;;;16.08;9.50;;;;;;;23.17;55.57;98800.94;4941907;29;20027;-83
2022/06/22 03:22:21;;;;;;;15.30;9.27;;;;;;;23.26;55.40;98797.50;4955127;28;20113;-83
2022/06/22 03:25:24;;;;;;;14.65;9.32;;;;;;;23.33;55.39;98800.22;4962162;28;20464;-81
2022/06/22 03:27:54;;;;;;;11.70;9.15;;;;;;;23.32;55.33;98794.97;4939650;29;20410;-82
2022/06/22 03:30:24;;;;;;;19.27;10.07;;;;;;;22.99;56.15;98784.16;4946027;28;20493;-81
2022/06/22 03:32:52;;;;;;;;;;;;;;;22.82;56.98;98798.34;4939249;28;20447;-80
2022/06/22 03:35:49;;;;;;;14.13;9.68;;;;;;;22.56;57.47;98783.75;4954927;29;19910;-81
2022/06/22 03:38:31;;;;;;;13.50;8.63;;;;;;;22.34;58.55;98785.31;4937750;28;20046;-80
2022/06/22 03:41:02;;;;;;;15.20;9.32;;;;;;;22.62;57.52;98792.56;4937837;29;20038;-81
2022/06/22 03:43:39;;;;;;;10.88;9.43;;;;;;;22.71;57.80;98797.72;4967475;28;20438;-81
2022/06/22 03:46:20;;;;;;;17.92;9.65;;;;;;;22.81;57.91;98808.13;4960290;28;20034;-81
2022/06/22 03:49:02;;;;;;;24.65;10.02;;;;;;;22.22;59.55;98796.06;4973715;28;20031;-80
2022/06/22 03:51:33;;;;;;;21.45;11.65;;;;;;;22.56;59.50;98809.38;4973570;28;20398;-81
2022/06/22 03:54:32;;;;;;;20.70;10.38;;;;;;;22.68;59.03;98818.53;4955681;28;20027;-81
2022/06/22 03:57:01;;;;;;;12.27;9.57;;;;;;;22.50;59.32;98816.81;4954437;28;20055;-80
2022/06/22 03:59:27;;;;;;;17.58;10.63;;;;;;;22.63;59.14;98816.19;4954337;29;20035;-80
2022/06/22 04:01:55;;;;;;;19.48;10.45;;;;;;;22.88;58.45;98804.34;4936851;29;20149;-80
2022/06/22 04:04:23;;;;;;;16.40;10.10;;;;;;;22.99;58.42;98801.28;4936874;29;20035;-81
2022/06/22 04:06:53;;;;;;;29.40;12.32;;;;;;;23.13;58.19;98814.47;4954361;28;20066;-79
2022/06/22 04:09:21;;;;;;;29.42;11.70;;;;;;;23.31;57.68;98822.69;4959329;28;20036;-81
2022/06/22 04:11:59;;;;;;;18.63;9.80;;;;;;;23.27;57.73;98814.22;4937112;29;20070;-81
2022/06/22 04:14:40;;;;;;;18.02;9.85;;;;;;;23.11;57.86;98817.75;4956000;28;20039;-81
2022/06/22 04:17:14;;;;;;;25.35;9.65;;;;;;;23.24;57.78;98802.84;4954150;28;20082;-80
2022/06/22 04:20:00;;;;;;;15.23;9.88;;;;;;;23.23;57.28;98798.38;4960105;28;20030;-80
2022/06/22 04:22:29;;;;;;;15.32;9.25;;;;;;;23.26;56.62;98791.78;4942720;29;20027;-81
2022/06/22 04:25:04;;;;;;;15.32;8.90;;;;;;;23.50;56.47;98809.66;4936847;29;20549;-80
2022/06/22 04:27:38;;;;;;;12.93;9.68;;;;;;;23.57;56.88;98814.41;4941082;29;20042;-81
2022/06/22 04:30:06;;;;;;;18.92;10.13;;;;;;;23.80;56.02;98798.44;4955323;28;20027;-81
2022/06/22 04:32:52;;;;;;;18.30;9.43;;;;;;;23.83;56.05;98812.63;4973285;28;20474;-81
2022/06/22 04:35:37;;;;;;;15.55;9.60;;;;;;;24.00;56.43;98817.56;4944187;29;20126;-81
2022/06/22 04:38:02;;;;;;;21.50;10.10;;;;;;;24.14;55.59;98819.31;4936751;29;20402;-81
2022/06/22 04:40:56;;;;;;;19.85;10.55;;;;;;;24.21;56.21;98814.22;4936501;29;20062;-81
2022/06/22 04:43:23;;;;;;;24.27;10.73;;;;;;;24.29;56.86;98811.22;4936522;29;20494;-81
2022/06/22 04:45:49;;;;;;;18.80;9.63;;;;;;;24.31;56.80;98815.22;4953515;28;20035;-80
2022/06/22 04:48:28;;;;;;;15.85;9.85;;;;;;;24.46;57.08;98824.25;4955317;28;20521;-81
2022/06/22 04:50:58;;;;;;;18.20;9.63;;;;;;;24.73;56.53;98826.00;4950327;28;20062;-80
2022/06/22 04:53:36;;;;;;;16.27;8.93;;;;;;;24.94;56.50;98823.88;4955537;28;20033;-81
2022/06/22 04:56:07;;;;;;;15.35;9.60;;;;;;;25.06;56.75;98825.19;4955527;28;20433;-81
2022/06/22 04:58:44;;;;;;;14.45;10.18;;;;;;;25.09;56.38;98839.38;4943495;29;20070;-80
2022/06/22 05:01:22;;;;;;;16.40;10.35;;;;;;;25.15;56.68;98830.28;4956638;28;20038;-81
2022/06/22 05:03:50;;;;;;;13.13;9.27;;;;;;;25.29;56.06;98829.88;4955424;28;20027;-81
2022/06/22 05:06:24;;;;;;;17.75;9.57;;;;;;;25.34;55.91;98835.06;4953429;28;20035;-82
2022/06/22 05:09:01;;;;;;;20.27;11.40;;;;;;;25.28;55.64;98833.97;4936302;29;20027;-79
2022/06/22 05:11:42;;;;;;;15.43;9.60;;;;;;;25.24;55.68;98839.00;4939179;28;20130;-81
2022/06/22 05:14:39;;;;;;;17.75;10.25;;;;;;;25.47;55.52;98840.81;4948981;29;20019;-81
2022/06/22 05:17:11;;;;;;;13.45;10.05;;;;;;;25.59;55.32;98845.00;4939384;28;20059;-82
2022/06/22 05:19:47;;;;;;;14.52;10.10;;;;;;;25.66;55.04;98838.25;4940558;29;20488;-81
2022/06/22 05:22:15;;;;;;;11.80;8.95;;;;;;;25.76;54.34;98845.72;4940214;29;20125;-82
2022/06/22 05:24:45;;;;;;;15.20;9.20;;;;;;;25.73;54.42;98840.91;4950450;28;20037;-81
2022/06/22 05:27:19;;;;;;;15.20;10.35;;;;;;;25.89;54.94;98848.59;4940064;28;20094;-81
2022/06/22 05:29:51;;;;;;;16.58;9.48;;;;;;;25.95;53.75;98833.72;4956472;28;20035;-81
2022/06/22 05:32:28;;;;;;;12.25;9.07;;;;;;;26.09;51.09;98853.34;4939762;29;20114;-82
2022/06/22 05:34:55;;;;;;;20.20;10.20;;;;;;;26.17;50.62;98851.84;4940063;29;20021;-81
2022/06/22 05:37:28;;;;;;;16.17;9.73;;;;;;;26.23;49.99;98865.63;4939218;28;20035;-81
2022/06/22 05:39:56;;;;;;;12.55;9.57;;;;;;;26.37;49.30;98865.16;4940350;28;20063;-81
2022/06/22 05:42:23;;;;;;;12.23;10.00;;;;;;;26.47;49.41;98852.56;4975982;28;20089;-82
2022/06/22 05:44:49;;;;;;;14.82;10.40;;;;;;;26.57;49.34;98841.19;4944392;29;20066;-82
2022/06/22 05:47:27;;;;;;;10.55;9.32;;;;;;;26.76;49.38;98845.84;4956256;28;20058;-81
2022/06/22 05:50:11;;;;;;;15.88;10.45;;;;;;;26.79;49.57;98867.09;4953999;28;20033;-81
2022/06/22 05:52:44;;;;;;;20.50;11.57;;;;;;;26.68;49.00;98866.63;4960764;28;20397;-81
2022/06/22 05:55:21;;;;;;;19.13;10.73;;;;;;;26.71;48.73;98860.78;4949297;28;20518;-82
2022/06/22 05:58:21;;;;;;;18.63;10.15;;;;;;;26.85;48.67;98864.44;4940013;29;20513;-78
2022/06/22 06:00:51;;;;;;;15.52;9.77;;;;;;;26.58;48.32;98854.28;4931661;29;20039;-81
2022/06/22 06:03:25;;;;;;;16.63;10.20;;;;;;;26.81;48.91;98878.09;4939430;29;20078;-77
2022/06/22 06:06:16;;;;;;;16.10;11.85;;;;;;;26.85;49.57;98870.16;4961228;28;20023;-86
2022/06/22 06:08:49;;;;;;;22.10;11.93;;;;;;;26.96;49.68;98878.44;4957432;28;20073;-85
2022/06/22 06:11:18;;;;;;;20.75;11.45;;;;;;;27.16;49.06;98867.47;4976121;28;20049;-90
2022/06/22 06:13:52;;;;;;;17.40;11.60;;;;;;;27.09;48.89;98870.59;4975906;28;20043;-85
2022/06/22 06:16:37;;;;;;;42.33;19.05;;;;;;;27.08;49.77;98866.13;4958271;28;20030;-87
2022/06/22 06:19:06;;;;;;;44.20;13.50;;;;;;;27.26;49.29;98859.72;4958567;28;20026;-86
2022/06/22 06:21:36;;;;;;;25.90;12.23;;;;;;;27.41;49.23;98853.50;4940539;29;20031;-87
2022/06/22 06:24:18;;;;;;;49.17;15.60;;;;;;;27.55;48.71;98858.72;4939242;29;20026;-86
2022/06/22 06:29:48;;;;;;;21.00;11.50;;;;;;;27.55;48.66;98867.34;4955106;29;20037;-85
2022/06/22 06:32:29;;;;;;;20.80;10.77;;;;;;;27.80;48.29;98859.84;4957063;29;20031;-84
2022/06/22 06:35:03;;;;;;;23.20;13.10;;;;;;;28.06;48.63;98856.03;4948122;28;20510;-79
2022/06/22 06:37:52;;;;;;;16.17;11.48;;;;;;;28.14;47.63;98852.38;4955999;28;20027;-78
2022/06/22 06:40:25;;;;;;;17.52;11.10;;;;;;;27.97;46.66;98845.25;4954783;29;20031;-78
2022/06/22 06:43:00;;;;;;;18.27;12.25;;;;;;;28.20;47.66;98846.03;4955667;29;20058;-78
2022/06/22 06:45:28;;;;;;;17.88;13.10;;;;;;;28.28;46.99;98830.91;4937986;29;20411;-78
2022/06/22 06:48:01;;;;;;;21.63;14.55;;;;;;;28.58;46.56;98833.38;4954438;29;20034;-79
2022/06/22 06:50:39;;;;;;;20.67;13.98;;;;;;;28.54;47.10;98844.25;4956372;28;20566;-79
2022/06/22 06:53:36;;;;;;;15.38;12.93;;;;;;;28.70;46.12;98843.97;4971613;28;20045;-80
2022/06/22 06:56:10;;;;;;;17.98;13.00;;;;;;;28.80;46.11;98826.72;4945126;29;20578;-80
2022/06/22 06:58:45;;;;;;;30.63;20.27;;;;;;;28.97;46.34;98828.09;4965375;28;20068;-79
2022/06/22 07:01:20;;;;;;;19.08;13.43;;;;;;;29.05;46.71;98828.56;4949681;28;20026;-80
2022/06/22 07:03:47;;;;;;;13.93;12.45;;;;;;;28.93;46.25;98823.75;4953123;28;20038;-79
2022/06/22 07:06:12;;;;;;;15.25;12.05;;;;;;;28.98;46.49;98825.97;4953987;29;20483;-79
2022/06/22 07:08:53;;;;;;;17.70;12.23;;;;;;;29.22;46.10;98831.94;4955339;28;20038;-80
2022/06/22 07:11:31;;;;;;;20.08;12.77;;;;;;;29.26;45.66;98829.69;4937996;29;20031;-81
2022/06/22 07:14:02;;;;;;;15.40;12.30;;;;;;;29.55;46.11;98827.59;4955155;28;20035;-81
2022/06/22 07:16:27;;;;;;;28.55;15.07;;;;;;;29.22;46.26;98823.28;4937671;29;20077;-80
2022/06/22 07:18:59;;;;;;;28.50;14.73;;;;;;;29.26;45.84;98823.09;4976839;28;20409;-77
2022/06/22 07:21:38;;;;;;;17.85;14.68;;;;;;;29.47;44.68;98832.91;4965700;28;20038;-78
2022/06/22 07:24:07;;;;;;;20.63;13.27;;;;;;;29.31;44.93;98839.75;4958548;28;20031;-79
2022/06/22 07:26:49;;;;;;;28.40;14.90;;;;;;;29.61;44.93;98834.31;4954842;28;20030;-78
2022/06/22 07:29:54;;;;;;;35.03;15.15;;;;;;;29.31;44.16;98831.13;4974411;28;20062;-77
2022/06/22 07:32:29;;;;;;;33.42;15.32;;;;;;;29.25;44.37;98830.97;4959840;28;20029;-83
2022/06/22 07:35:29;;;;;;;22.73;14.18;;;;;;;29.29;45.20;98828.72;4975356;28;20030;-86
2022/06/22 07:38:18;;;;;;;19.23;13.95;;;;;;;29.52;44.83;98828.59;4950590;28;20074;-80
2022/06/22 07:41:30;;;;;;;18.73;13.82;;;;;;;29.66;44.03;98821.34;4948974;28;20027;-80
2022/06/22 07:43:32;;;;;;;18.08;14.05;;;;;;;29.75;45.15;98821.31;4944129;28;20122;-83
2022/06/22 07:45:58;;;;;;;24.65;14.20;;;;;;;29.69;43.46;98831.91;4991890;28;20030;-82
2022/06/22 07:48:25;;;;;;;17.42;13.13;;;;;;;29.52;42.75;98832.25;4959122;28;20118;-85
2022/06/22 07:50:55;;;;;;;18.48;13.88;;;;;;;29.88;44.07;98837.63;4947516;28;20624;-77
2022/06/22 07:53:34;;;;;;;;;;;;;;;30.16;42.33;98840.44;4969003;28;20034;-80
2022/06/22 07:56:08;;;;;;;15.57;13.15;;;;;;;30.10;40.61;98826.69;4954382;28;20306;-81
2022/06/22 07:59:08;;;;;;;15.68;13.13;;;;;;;29.93;41.22;98825.47;4954665;28;20030;-81
2022/06/22 08:01:45;;;;;;;25.95;13.57;;;;;;;29.82;41.67;98828.84;4940154;28;20098;-83
2022/06/22 08:04:26;;;;;;;20.77;14.68;;;;;;;30.19;42.05;98827.94;4954225;28;20030;-77
2022/06/22 08:07:06;;;;;;;17.85;12.85;;;;;;;30.18;40.96;98820.59;4961391;28;20046;-88
2022/06/22 08:09:49;;;;;;;14.98;12.75;;;;;;;29.96;40.86;98827.34;4966328;28;20118;-89
2022/06/22 08:12:37;;;;;;;20.83;13.15;;;;;;;30.08;39.88;98825.56;4945378;28;20122;-85
2022/06/22 08:15:06;;;;;;;18.20;13.77;;;;;;;30.10;40.14;98820.13;4952198;28;20097;-82
2022/06/22 08:17:49;;;;;;;18.08;13.32;;;;;;;30.27;40.32;98823.41;4952014;28;20027;-78
2022/06/22 08:20:24;;;;;;;30.65;13.77;;;;;;;29.97;40.45;98805.91;4954197;28;20062;-76
2022/06/22 08:22:50;;;;;;;21.63;13.85;;;;;;;30.26;39.65;98821.81;4944893;29;20038;-79
2022/06/22 08:25:19;;;;;;;16.25;14.02;;;;;;;30.56;38.62;98821.19;4944458;29;20035;-81
2022/06/22 08:27:45;;;;;;;15.98;13.57;;;;;;;30.53;39.44;98825.88;4936498;29;20058;-84
2022/06/22 08:30:12;;;;;;;20.55;13.27;;;;;;;30.74;38.44;98820.31;4937563;28;20109;-78
2022/06/22 08:32:50;;;;;;;24.52;15.30;;;;;;;30.84;38.10;98813.19;4961992;28;20502;-80
2022/06/22 08:35:24;;;;;;;24.33;14.27;;;;;;;31.22;38.32;98814.53;4944245;28;20039;-87
2022/06/22 08:38:08;;;;;;;20.77;13.48;;;;;;;31.07;37.15;98805.81;4961253;28;20517;-83
2022/06/22 08:40:48;;;;;;;29.33;13.45;;;;;;;31.21;37.99;98809.22;4959778;28;20410;-82
2022/06/22 08:43:40;;;;;;;32.88;15.38;;;;;;;30.82;38.26;98822.31;4946921;29;20062;-86
2022/06/22 08:46:24;;;;;;;21.73;12.80;;;;;;;30.87;37.61;98834.50;4923344;29;20502;-85
2022/06/22 08:49:10;;;;;;;30.63;14.85;;;;;;;30.95;38.15;98824.97;4940329;28;20022;-85
2022/06/22 08:51:57;;;;;;;31.92;13.65;;;;;;;31.32;38.56;98832.59;4964006;28;20477;-88
2022/06/22 08:54:30;;;;;;;56.72;16.45;;;;;;;31.18;37.32;98830.41;4956511;28;20067;-81
2022/06/22 08:57:18;;;;;;;30.52;14.45;;;;;;;31.19;37.59;98823.34;4938920;28;20054;-77
2022/06/22 09:00:03;;;;;;;27.85;13.52;;;;;;;30.90;38.51;98822.78;4969726;28;20458;-79
2022/06/22 09:02:46;;;;;;;20.50;14.52;;;;;;;31.44;38.07;98807.59;4955278;28;20041;-79
2022/06/22 09:05:29;;;;;;;25.85;13.52;;;;;;;31.06;37.01;98803.41;4957037;28;20123;-86
2022/06/22 09:08:27;;;;;;;23.83;13.80;;;;;;;31.07;37.87;98791.38;4941710;29;20531;-81
2022/06/22 09:11:44;;;;;;;22.08;14.07;;;;;;;31.22;37.92;98781.97;4937077;29;20053;-88
2022/06/22 09:14:37;;;;;;;25.88;14.30;;;;;;;31.49;37.38;98786.66;4924911;28;20083;-87
2022/06/22 09:17:27;;;;;;;22.17;14.63;;;;;;;31.55;37.69;98794.66;4953678;28;20529;-82
2022/06/22 09:20:09;;;;;;;18.35;14.00;;;;;;;31.31;36.94;98807.09;4934253;28;20508;-79
2022/06/22 09:22:53;;;;;;;17.85;14.10;;;;;;;31.49;36.38;98792.44;4941999;28;20056;-83
2022/06/22 09:25:47;;;;;;;22.83;14.38;;;;;;;31.24;37.73;98779.38;4948463;28;20422;-77
2022/06/22 09:28:52;;;;;;;19.50;13.65;;;;;;;31.11;37.82;98779.63;4940645;28;20654;-78
2022/06/22 09:31:23;;;;;;;15.35;12.73;;;;;;;31.10;36.40;98778.03;4957976;28;20058;-78
2022/06/22 09:34:03;;;;;;;24.70;14.98;;;;;;;31.07;37.17;98773.25;4939558;28;20110;-79
2022/06/22 09:36:43;;;;;;;21.35;14.75;;;;;;;31.42;37.34;98771.81;4940336;28;20094;-79
2022/06/22 09:39:11;;;;;;;18.25;13.95;;;;;;;31.64;37.16;98765.66;4961010;28;20038;-79
2022/06/22 09:41:55;;;;;;;22.30;12.93;;;;;;;31.29;36.13;98763.47;4941702;28;20109;-80
2022/06/22 09:45:01;;;;;;;25.50;13.23;;;;;;;31.16;36.12;98764.50;4952827;28;20030;-80
2022/06/22 09:47:44;;;;;;;20.42;13.35;;;;;;;31.12;37.39;98777.53;4966668;28;20562;-79
2022/06/22 09:50:42;;;;;;;21.63;14.88;;;;;;;31.14;37.71;98767.09;4968611;28;20031;-79
2022/06/22 09:53:31;;;;;;;17.35;14.10;;;;;;;31.12;37.08;98763.09;4972075;28;20509;-79
2022/06/22 09:56:47;;;;;;;19.40;13.85;;;;;;;31.46;38.26;98758.78;4970416;28;20062;-79
2022/06/22 09:59:59;;;;;;;30.83;13.38;;;;;;;31.45;35.72;98754.31;4932624;28;20070;-80
2022/06/22 10:02:33;;;;;;;18.05;13.55;;;;;;;31.57;36.29;98748.72;4956221;28;20450;-79
2022/06/22 10:05:36;;;;;;;24.02;15.43;;;;;;;31.90;36.86;98745.63;4959032;28;20038;-79
2022/06/22 10:08:21;;;;;;;25.92;14.35;;;;;;;31.95;36.27;98732.56;4954384;28;20475;-80
2022/06/22 10:11:24;;;;;;;21.48;13.05;;;;;;;31.84;36.48;98741.84;4958339;28;20027;-77
2022/06/22 10:14:36;;;;;;;25.60;14.23;;;;;;;30.99;40.61;98757.59;4975653;28;20027;-77
2022/06/22 10:17:12;;;;;;;16.83;11.48;;;;;;;30.77;39.41;98767.38;4940257;28;20427;-77
2022/06/22 10:19:50;;;;;;;18.42;10.73;;;;;;;30.24;40.78;98767.53;4957807;28;20121;-79
2022/06/22 10:22:32;;;;;;;24.13;12.55;;;;;;;30.24;41.55;98766.72;4966114;28;20058;-85
2022/06/22 10:25:09;;;;;;;15.63;11.95;;;;;;;30.26;40.90;98764.16;4954055;29;20019;-85
2022/06/22 10:28:02;;;;;;;19.63;11.55;;;;;;;30.35;41.40;98760.41;4956287;29;20035;-86
2022/06/22 10:30:30;;;;;;;14.40;10.45;;;;;;;30.51;41.57;98770.72;4946625;28;20050;-80
2022/06/22 10:33:11;;;;;;;13.80;10.52;;;;;;;31.23;41.30;98764.13;4956800;28;20066;-80
2022/06/22 10:35:48;;;;;;;18.48;10.57;;;;;;;31.69;39.90;98772.84;4944593;29;20487;-80
2022/06/22 10:38:29;;;;;;;16.35;11.73;;;;;;;31.15;40.26;98785.22;4940543;29;20027;-81
2022/06/22 10:47:35;;;;;;;19.60;13.35;;;;;;;30.99;42.42;98767.06;4956011;29;20042;-83
2022/06/22 10:50:03;;;;;;;16.98;12.80;;;;;;;30.72;42.26;98774.66;4940515;29;20395;-77
2022/06/22 10:52:29;;;;;;;15.15;13.45;;;;;;;29.81;43.13;98781.94;4938771;29;20090;-81
2022/06/22 10:55:22;;;;;;;20.85;13.55;;;;;;;29.61;43.81;98790.31;4954563;29;20062;-82
2022/06/22 10:57:55;;;;;;;17.75;12.48;;;;;;;29.48;43.53;98791.31;4951774;28;20097;-80
2022/06/22 11:00:53;;;;;;;17.50;11.32;;;;;;;29.34;41.90;98781.19;4955222;28;20022;-79
2022/06/22 11:03:38;;;;;;;20.17;10.98;;;;;;;29.22;41.06;98794.50;4943856;28;20053;-79
2022/06/22 11:06:39;;;;;;;16.05;10.55;;;;;;;29.10;39.85;98795.47;4957238;28;20083;-79
2022/06/22 11:09:22;;;;;;;18.52;11.23;;;;;;;28.69;40.66;98793.47;4939720;28;20050;-79
2022/06/22 11:12:03;;;;;;;25.05;10.85;;;;;;;28.61;40.49;98805.75;4968501;28;20113;-79
2022/06/22 11:15:17;;;;;;;29.27;10.27;;;;;;;28.33;40.82;98791.31;4954692;28;20031;-80
2022/06/22 11:18:21;;;;;;;19.48;7.70;;;;;;;28.30;41.54;98795.94;4942827;28;20102;-80
2022/06/22 11:20:53;;;;;;;16.48;7.60;;;;;;;28.18;40.33;98783.28;4879322;28;20048;-80
2022/06/22 11:23:58;;;;;;;21.92;7.68;;;;;;;28.16;40.31;98780.84;4961535;28;20429;-79
2022/06/22 11:33:01;;;;;;;18.70;6.10;;;;;;;28.92;39.42;98791.28;4959918;28;20054;-80
2022/06/22 11:36:09;;;;;;;20.40;5.85;;;;;;;29.11;39.80;98838.16;4940639;28;20034;-80
2022/06/22 11:38:49;;;;;;;13.52;7.22;;;;;;;28.93;42.75;98853.31;4941809;28;20042;-80
2022/06/22 11:41:33;;;;;;;30.02;9.23;;;;;;;29.23;42.57;98847.09;4962559;28;20410;-79
2022/06/22 11:44:21;;;;;;;29.42;10.18;;;;;;;29.18;42.72;98839.91;4958767;28;20558;-80
2022/06/22 11:46:54;;;;;;;23.45;8.25;;;;;;;29.35;42.83;98842.47;4947569;28;20030;-80
2022/06/22 11:49:44;;;;;;;25.83;10.00;;;;;;;29.40;41.58;98834.00;4967012;28;20037;-80
2022/06/22 11:52:31;;;;;;;26.75;8.90;;;;;;;29.31;40.80;98847.59;4969087;28;20122;-80
2022/06/22 11:55:18;;;;;;;22.63;11.50;;;;;;;29.20;45.34;98846.00;4966999;28;20054;-80
2022/06/22 11:58:08;;;;;;;21.30;11.65;;;;;;;28.99;47.40;98839.09;4954719;28;20031;-79
2022/06/22 12:00:49;;;;;;;24.73;12.52;;;;;;;29.06;47.99;98820.72;4945364;29;20483;-80
2022/06/22 12:03:53;;;;;;;23.17;12.82;;;;;;;28.80;49.87;98820.97;4950211;28;20034;-83
2022/06/22 12:06:43;;;;;;;21.35;13.75;;;;;;;28.64;48.88;98825.75;4938509;28;20031;-82
2022/06/22 12:09:30;;;;;;;31.80;14.73;;;;;;;28.55;49.99;98828.59;4955076;28;20035;-83
2022/06/22 12:12:23;;;;;;;21.02;14.40;;;;;;;28.41;50.51;98830.81;4954682;28;20039;-84
2022/06/22 12:15:08;;;;;;;29.52;15.20;;;;;;;28.04;52.10;98824.88;4968973;28;20020;-77
2022/06/22 12:18:02;;;;;;;29.75;14.63;;;;;;;27.79;52.57;98826.66;4952729;28;20027;-78
2022/06/22 12:20:57;;;;;;;20.88;12.70;;;;;;;27.71;53.52;98825.31;4952388;28;20034;-82
2022/06/22 12:23:26;;;;;;;19.00;13.45;;;;;;;27.88;54.00;98820.97;4950145;28;20031;-83
2022/06/22 12:26:46;;;;;;;25.58;13.77;;;;;;;28.24;53.37;98830.25;4973104;28;20113;-80
2022/06/22 12:29:23;;;;;;;19.80;13.50;;;;;;;28.63;52.43;98834.84;4877294;28;20058;-80
2022/06/22 12:31:55;;;;;;;19.38;13.00;;;;;;;28.60;51.86;98822.22;4946627;29;20041;-84
2022/06/22 12:34:35;;;;;;;15.57;12.65;;;;;;;28.66;51.89;98822.38;4936458;29;20082;-86
2022/06/22 12:37:19;;;;;;;21.10;13.68;;;;;;;28.66;51.61;98820.31;4937970;28;20058;-87
2022/06/22 12:39:52;;;;;;;23.15;13.90;;;;;;;28.73;51.43;98804.81;4972264;28;20387;-81